sensor_id;sensor_type;location;lat;lon;timestamp;temperature;humidity
18577;DHT22;9418;52.694;13.294;2023-11-22T00:01:06;-1.10;99.90
18577;DHT22;9418;52.694;13.294;2023-11-22T00:03:35;-1.10;99.90
18577;DHT22;9418;52.694;13.294;2023-11-22T00:06:01;-1.10;99.90
18577;DHT22;9418;52.694;13.294;2023-11-22T00:08:28;-1.10;99.90
18577;DHT22;9418;52.694;13.294;2023-11-22T00:10:55;-1.10;99.90
18577;DHT22;9418;52.694;13.294;2023-11-22T00:13:21;-1.10;99.90
18577;DHT22;9418;52.694;13.294;2023-11-22T00:15:48;-1.10;99.90
18577;DHT22;9418;52.694;13.294;2023-11-22T00:18:15;-1.10;99.90
18577;DHT22;9418;52.694;13.294;2023-11-22T00:20:43;-1.20;99.90
18577;DHT22;9418;52.694;13.294;2023-11-22T00:23:13;-1.20;99.90
18577;DHT22;9418;52.694;13.294;2023-11-22T00:25:39;-1.20;99.90
18577;DHT22;9418;52.694;13.294;2023-11-22T00:28:05;-1.30;99.90
18577;DHT22;9418;52.694;13.294;2023-11-22T00:30:32;-1.30;99.90
18577;DHT22;9418;52.694;13.294;2023-11-22T00:32:58;-1.30;99.90
18577;DHT22;9418;52.694;13.294;2023-11-22T00:35:25;-1.30;99.90
18577;DHT22;9418;52.694;13.294;2023-11-22T00:37:53;-1.30;99.90
18577;DHT22;9418;52.694;13.294;2023-11-22T00:40:20;-1.30;99.90
18577;DHT22;9418;52.694;13.294;2023-11-22T00:42:46;-1.30;99.90
18577;DHT22;9418;52.694;13.294;2023-11-22T00:45:13;-1.40;99.90
18577;DHT22;9418;52.694;13.294;2023-11-22T00:47:39;-1.40;99.90
18577;DHT22;9418;52.694;13.294;2023-11-22T00:50:07;-1.40;99.90
18577;DHT22;9418;52.694;13.294;2023-11-22T00:52:33;-1.40;99.90
18577;DHT22;9418;52.694;13.294;2023-11-22T00:55:01;-1.40;99.90
18577;DHT22;9418;52.694;13.294;2023-11-22T00:57:28;-1.40;99.90
18577;DHT22;9418;52.694;13.294;2023-11-22T00:59:55;-1.40;99.90
18577;DHT22;9418;52.694;13.294;2023-11-22T01:02:22;-1.40;99.90
18577;DHT22;9418;52.694;13.294;2023-11-22T01:04:48;-1.40;99.90
18577;DHT22;9418;52.694;13.294;2023-11-22T01:07:15;-1.40;99.90
18577;DHT22;9418;52.694;13.294;2023-11-22T01:09:42;-1.50;99.90
18577;DHT22;9418;52.694;13.294;2023-11-22T01:12:10;-1.50;99.90
18577;DHT22;9418;52.694;13.294;2023-11-22T01:14:37;-1.40;99.90
18577;DHT22;9418;52.694;13.294;2023-11-22T01:17:04;-1.50;99.90
18577;DHT22;9418;52.694;13.294;2023-11-22T01:19:31;-1.50;99.90
18577;DHT22;9418;52.694;13.294;2023-11-22T01:21:57;-1.50;99.90
18577;DHT22;9418;52.694;13.294;2023-11-22T01:24:24;-1.50;99.90
18577;DHT22;9418;52.694;13.294;2023-11-22T01:26:51;-1.50;99.90
18577;DHT22;9418;52.694;13.294;2023-11-22T01:29:19;-1.60;99.90
18577;DHT22;9418;52.694;13.294;2023-11-22T01:31:45;-1.60;99.90
18577;DHT22;9418;52.694;13.294;2023-11-22T01:34:13;-1.60;99.90
18577;DHT22;9418;52.694;13.294;2023-11-22T01:36:42;-1.60;99.90
18577;DHT22;9418;52.694;13.294;2023-11-22T01:39:10;-1.70;99.90
18577;DHT22;9418;52.694;13.294;2023-11-22T01:41:37;-1.70;99.90
18577;DHT22;9418;52.694;13.294;2023-11-22T01:44:04;-1.60;99.90
18577;DHT22;9418;52.694;13.294;2023-11-22T01:46:32;-1.70;99.90
18577;DHT22;9418;52.694;13.294;2023-11-22T01:48:59;-1.70;99.90
18577;DHT22;9418;52.694;13.294;2023-11-22T01:51:27;-1.70;99.90
18577;DHT22;9418;52.694;13.294;2023-11-22T01:53:56;-1.70;99.90
18577;DHT22;9418;52.694;13.294;2023-11-22T01:56:26;-1.70;99.90
18577;DHT22;9418;52.694;13.294;2023-11-22T01:58:53;-1.80;99.90
18577;DHT22;9418;52.694;13.294;2023-11-22T02:01:20;-1.80;99.90
18577;DHT22;9418;52.694;13.294;2023-11-22T02:03:48;-1.80;99.70
18577;DHT22;9418;52.694;13.294;2023-11-22T02:06:17;-1.80;99.90
18577;DHT22;9418;52.694;13.294;2023-11-22T02:08:44;-1.80;97.30
18577;DHT22;9418;52.694;13.294;2023-11-22T02:11:11;-1.90;97.20
18577;DHT22;9418;52.694;13.294;2023-11-22T02:13:37;-1.90;94.90
18577;DHT22;9418;52.694;13.294;2023-11-22T02:16:04;-1.90;94.70
18577;DHT22;9418;52.694;13.294;2023-11-22T02:18:31;-1.90;95.80
18577;DHT22;9418;52.694;13.294;2023-11-22T02:20:59;-1.90;97.70
18577;DHT22;9418;52.694;13.294;2023-11-22T02:23:27;-2.00;96.20
18577;DHT22;9418;52.694;13.294;2023-11-22T02:25:55;-2.00;95.80
18577;DHT22;9418;52.694;13.294;2023-11-22T02:28:21;-2.00;95.00
18577;DHT22;9418;52.694;13.294;2023-11-22T02:30:48;-2.00;94.50
18577;DHT22;9418;52.694;13.294;2023-11-22T02:33:15;-2.10;93.20
18577;DHT22;9418;52.694;13.294;2023-11-22T02:35:42;-2.10;91.10
18577;DHT22;9418;52.694;13.294;2023-11-22T02:38:08;-2.10;90.60
18577;DHT22;9418;52.694;13.294;2023-11-22T02:40:36;-2.10;90.60
18577;DHT22;9418;52.694;13.294;2023-11-22T02:43:03;-2.10;91.20
18577;DHT22;9418;52.694;13.294;2023-11-22T02:45:34;-2.10;91.60
18577;DHT22;9418;52.694;13.294;2023-11-22T02:48:01;-2.10;91.90
18577;DHT22;9418;52.694;13.294;2023-11-22T02:50:29;-2.10;91.30
18577;DHT22;9418;52.694;13.294;2023-11-22T02:52:57;-2.10;91.40
18577;DHT22;9418;52.694;13.294;2023-11-22T02:55:23;-2.20;92.20
18577;DHT22;9418;52.694;13.294;2023-11-22T02:57:51;-2.20;91.40
18577;DHT22;9418;52.694;13.294;2023-11-22T03:00:18;-2.20;91.30
18577;DHT22;9418;52.694;13.294;2023-11-22T03:02:45;-2.20;91.80
18577;DHT22;9418;52.694;13.294;2023-11-22T03:05:12;-2.20;88.60
18577;DHT22;9418;52.694;13.294;2023-11-22T03:07:39;-2.10;87.20
18577;DHT22;9418;52.694;13.294;2023-11-22T03:10:07;-2.20;89.40
18577;DHT22;9418;52.694;13.294;2023-11-22T03:12:34;-2.10;88.70
18577;DHT22;9418;52.694;13.294;2023-11-22T03:15:02;-2.10;90.60
18577;DHT22;9418;52.694;13.294;2023-11-22T03:17:29;-2.20;92.50
18577;DHT22;9418;52.694;13.294;2023-11-22T03:19:56;-2.20;93.30
18577;DHT22;9418;52.694;13.294;2023-11-22T03:22:23;-2.20;93.80
18577;DHT22;9418;52.694;13.294;2023-11-22T03:24:50;-2.20;95.30
18577;DHT22;9418;52.694;13.294;2023-11-22T03:27:16;-2.30;95.30
18577;DHT22;9418;52.694;13.294;2023-11-22T03:29:43;-2.30;96.40
18577;DHT22;9418;52.694;13.294;2023-11-22T03:32:13;-2.20;88.80
18577;DHT22;9418;52.694;13.294;2023-11-22T03:34:39;-2.30;91.00
18577;DHT22;9418;52.694;13.294;2023-11-22T03:37:06;-2.30;91.30
18577;DHT22;9418;52.694;13.294;2023-11-22T03:39:32;-2.30;91.70
18577;DHT22;9418;52.694;13.294;2023-11-22T03:41:59;-2.40;92.50
18577;DHT22;9418;52.694;13.294;2023-11-22T03:44:25;-2.50;94.50
18577;DHT22;9418;52.694;13.294;2023-11-22T03:46:54;-2.40;90.70
18577;DHT22;9418;52.694;13.294;2023-11-22T03:49:22;-2.40;87.50
18577;DHT22;9418;52.694;13.294;2023-11-22T03:51:48;-2.50;90.20
18577;DHT22;9418;52.694;13.294;2023-11-22T03:54:15;-2.50;91.80
18577;DHT22;9418;52.694;13.294;2023-11-22T03:56:41;-2.60;92.90
18577;DHT22;9418;52.694;13.294;2023-11-22T03:59:09;-2.60;92.80
18577;DHT22;9418;52.694;13.294;2023-11-22T04:01:36;-2.60;90.10
18577;DHT22;9418;52.694;13.294;2023-11-22T04:04:03;-2.70;89.60
18577;DHT22;9418;52.694;13.294;2023-11-22T04:06:30;-2.60;88.30
18577;DHT22;9418;52.694;13.294;2023-11-22T04:08:59;-2.70;87.50
18577;DHT22;9418;52.694;13.294;2023-11-22T04:11:26;-2.60;84.50
18577;DHT22;9418;52.694;13.294;2023-11-22T04:13:54;-2.60;80.90
18577;DHT22;9418;52.694;13.294;2023-11-22T04:16:21;-2.60;78.80
18577;DHT22;9418;52.694;13.294;2023-11-22T04:18:47;-2.50;77.30
18577;DHT22;9418;52.694;13.294;2023-11-22T04:21:14;-2.60;77.80
18577;DHT22;9418;52.694;13.294;2023-11-22T04:23:42;-2.60;79.50
18577;DHT22;9418;52.694;13.294;2023-11-22T04:26:08;-2.70;81.50
18577;DHT22;9418;52.694;13.294;2023-11-22T04:28:36;-2.70;81.50
18577;DHT22;9418;52.694;13.294;2023-11-22T04:31:02;-2.70;80.50
18577;DHT22;9418;52.694;13.294;2023-11-22T04:33:29;-2.70;80.00
18577;DHT22;9418;52.694;13.294;2023-11-22T04:35:56;-2.70;80.50
18577;DHT22;9418;52.694;13.294;2023-11-22T04:38:23;-2.80;81.70
18577;DHT22;9418;52.694;13.294;2023-11-22T04:40:51;-2.80;81.60
18577;DHT22;9418;52.694;13.294;2023-11-22T04:43:18;-2.70;80.60
18577;DHT22;9418;52.694;13.294;2023-11-22T04:45:45;-2.80;81.10
18577;DHT22;9418;52.694;13.294;2023-11-22T04:48:11;-2.80;80.80
18577;DHT22;9418;52.694;13.294;2023-11-22T04:50:40;-2.80;81.30
18577;DHT22;9418;52.694;13.294;2023-11-22T04:53:06;-2.80;81.60
18577;DHT22;9418;52.694;13.294;2023-11-22T04:55:33;-2.90;83.10
18577;DHT22;9418;52.694;13.294;2023-11-22T04:58:01;-2.80;76.80
18577;DHT22;9418;52.694;13.294;2023-11-22T05:00:28;-2.80;78.20
18577;DHT22;9418;52.694;13.294;2023-11-22T05:02:55;-2.90;80.60
18577;DHT22;9418;52.694;13.294;2023-11-22T05:05:21;-2.90;79.70
18577;DHT22;9418;52.694;13.294;2023-11-22T05:07:48;-2.90;79.10
18577;DHT22;9418;52.694;13.294;2023-11-22T05:10:14;-3.00;79.30
18577;DHT22;9418;52.694;13.294;2023-11-22T05:12:42;-2.90;78.80
18577;DHT22;9418;52.694;13.294;2023-11-22T05:15:10;-3.00;80.10
18577;DHT22;9418;52.694;13.294;2023-11-22T05:17:39;-3.00;80.00
18577;DHT22;9418;52.694;13.294;2023-11-22T05:20:07;-3.00;79.90
18577;DHT22;9418;52.694;13.294;2023-11-22T05:22:34;-3.00;78.50
18577;DHT22;9418;52.694;13.294;2023-11-22T05:25:01;-3.00;77.70
18577;DHT22;9418;52.694;13.294;2023-11-22T05:27:27;-3.00;78.60
18577;DHT22;9418;52.694;13.294;2023-11-22T05:29:54;-3.10;80.20
18577;DHT22;9418;52.694;13.294;2023-11-22T05:32:22;-3.00;80.10
18577;DHT22;9418;52.694;13.294;2023-11-22T05:34:49;-3.00;80.30
18577;DHT22;9418;52.694;13.294;2023-11-22T05:37:15;-3.00;80.80
18577;DHT22;9418;52.694;13.294;2023-11-22T05:39:42;-3.00;79.10
18577;DHT22;9418;52.694;13.294;2023-11-22T05:42:08;-3.00;78.80
18577;DHT22;9418;52.694;13.294;2023-11-22T05:44:35;-3.00;77.50
18577;DHT22;9418;52.694;13.294;2023-11-22T05:47:01;-3.00;76.10
18577;DHT22;9418;52.694;13.294;2023-11-22T05:49:29;-3.00;76.30
18577;DHT22;9418;52.694;13.294;2023-11-22T05:51:56;-3.00;76.20
18577;DHT22;9418;52.694;13.294;2023-11-22T05:54:22;-3.00;76.00
18577;DHT22;9418;52.694;13.294;2023-11-22T05:56:49;-3.00;73.90
18577;DHT22;9418;52.694;13.294;2023-11-22T05:59:16;-3.00;74.50
18577;DHT22;9418;52.694;13.294;2023-11-22T06:01:42;-3.10;75.30
18577;DHT22;9418;52.694;13.294;2023-11-22T06:04:09;-3.10;77.60
18577;DHT22;9418;52.694;13.294;2023-11-22T06:06:37;-3.10;74.00
18577;DHT22;9418;52.694;13.294;2023-11-22T06:09:05;-3.10;76.00
18577;DHT22;9418;52.694;13.294;2023-11-22T06:11:32;-3.10;77.40
18577;DHT22;9418;52.694;13.294;2023-11-22T06:13:59;-3.10;76.30
18577;DHT22;9418;52.694;13.294;2023-11-22T06:16:25;-3.10;79.80
18577;DHT22;9418;52.694;13.294;2023-11-22T06:18:52;-3.20;80.60
18577;DHT22;9418;52.694;13.294;2023-11-22T06:21:19;-3.10;80.70
18577;DHT22;9418;52.694;13.294;2023-11-22T06:23:47;-3.20;81.60
18577;DHT22;9418;52.694;13.294;2023-11-22T06:26:15;-3.20;79.30
18577;DHT22;9418;52.694;13.294;2023-11-22T06:28:41;-3.20;81.80
18577;DHT22;9418;52.694;13.294;2023-11-22T06:31:10;-3.20;81.80
18577;DHT22;9418;52.694;13.294;2023-11-22T06:33:36;-3.20;79.20
18577;DHT22;9418;52.694;13.294;2023-11-22T06:36:03;-3.20;82.30
18577;DHT22;9418;52.694;13.294;2023-11-22T06:38:29;-3.20;83.50
18577;DHT22;9418;52.694;13.294;2023-11-22T06:40:57;-3.10;82.70
18577;DHT22;9418;52.694;13.294;2023-11-22T06:43:24;-3.00;86.30
18577;DHT22;9418;52.694;13.294;2023-11-22T06:45:51;-3.00;89.10
18577;DHT22;9418;52.694;13.294;2023-11-22T06:48:18;-3.00;92.40
18577;DHT22;9418;52.694;13.294;2023-11-22T06:50:44;-3.10;92.60
18577;DHT22;9418;52.694;13.294;2023-11-22T06:53:11;-3.20;91.00
18577;DHT22;9418;52.694;13.294;2023-11-22T06:55:38;-3.20;88.20
18577;DHT22;9418;52.694;13.294;2023-11-22T06:58:06;-3.20;87.90
18577;DHT22;9418;52.694;13.294;2023-11-22T07:00:33;-3.20;85.90
18577;DHT22;9418;52.694;13.294;2023-11-22T07:03:00;-3.20;85.40
18577;DHT22;9418;52.694;13.294;2023-11-22T07:05:26;-3.20;85.70
18577;DHT22;9418;52.694;13.294;2023-11-22T07:07:55;-3.20;81.60
18577;DHT22;9418;52.694;13.294;2023-11-22T07:10:22;-3.20;85.90
18577;DHT22;9418;52.694;13.294;2023-11-22T07:12:49;-3.20;86.50
18577;DHT22;9418;52.694;13.294;2023-11-22T07:15:17;-3.20;87.20
18577;DHT22;9418;52.694;13.294;2023-11-22T07:17:44;-3.10;86.60
18577;DHT22;9418;52.694;13.294;2023-11-22T07:20:11;-3.10;85.10
18577;DHT22;9418;52.694;13.294;2023-11-22T07:22:42;-3.00;88.40
18577;DHT22;9418;52.694;13.294;2023-11-22T07:25:09;-3.00;89.60
18577;DHT22;9418;52.694;13.294;2023-11-22T07:27:43;-3.00;89.80
18577;DHT22;9418;52.694;13.294;2023-11-22T07:30:11;-2.90;91.40
18577;DHT22;9418;52.694;13.294;2023-11-22T07:32:39;-2.90;94.40
18577;DHT22;9418;52.694;13.294;2023-11-22T07:35:07;-2.90;97.90
18577;DHT22;9418;52.694;13.294;2023-11-22T07:37:34;-2.80;95.20
18577;DHT22;9418;52.694;13.294;2023-11-22T07:40:01;-2.70;96.90
18577;DHT22;9418;52.694;13.294;2023-11-22T07:42:29;-2.70;99.40
18577;DHT22;9418;52.694;13.294;2023-11-22T07:44:55;-2.70;99.20
18577;DHT22;9418;52.694;13.294;2023-11-22T07:47:22;-2.60;99.50
18577;DHT22;9418;52.694;13.294;2023-11-22T07:49:51;-2.50;98.70
18577;DHT22;9418;52.694;13.294;2023-11-22T07:52:17;-2.40;96.50
18577;DHT22;9418;52.694;13.294;2023-11-22T07:54:44;-2.40;96.80
18577;DHT22;9418;52.694;13.294;2023-11-22T07:57:11;-2.30;93.00
18577;DHT22;9418;52.694;13.294;2023-11-22T07:59:37;-2.20;94.50
18577;DHT22;9418;52.694;13.294;2023-11-22T08:02:04;-2.20;97.90
18577;DHT22;9418;52.694;13.294;2023-11-22T08:04:33;-2.10;99.60
18577;DHT22;9418;52.694;13.294;2023-11-22T08:07:01;-1.90;99.90
18577;DHT22;9418;52.694;13.294;2023-11-22T08:09:27;-1.50;99.90
18577;DHT22;9418;52.694;13.294;2023-11-22T08:11:58;-1.00;99.90
18577;DHT22;9418;52.694;13.294;2023-11-22T08:14:24;-0.60;99.90
18577;DHT22;9418;52.694;13.294;2023-11-22T08:16:53;-0.10;99.90
18577;DHT22;9418;52.694;13.294;2023-11-22T08:19:19;0.60;99.90
18577;DHT22;9418;52.694;13.294;2023-11-22T08:21:47;0.30;99.90
18577;DHT22;9418;52.694;13.294;2023-11-22T08:24:15;0.40;99.90
18577;DHT22;9418;52.694;13.294;2023-11-22T08:26:42;0.60;99.90
18577;DHT22;9418;52.694;13.294;2023-11-22T08:29:08;0.70;99.90
18577;DHT22;9418;52.694;13.294;2023-11-22T08:31:36;1.10;99.90
18577;DHT22;9418;52.694;13.294;2023-11-22T08:34:03;1.00;20.30
18577;DHT22;9418;52.694;13.294;2023-11-22T08:36:32;0.90;99.90
18577;DHT22;9418;52.694;13.294;2023-11-22T08:38:59;1.00;99.90
18577;DHT22;9418;52.694;13.294;2023-11-22T08:41:27;1.30;97.60
18577;DHT22;9418;52.694;13.294;2023-11-22T08:43:55;1.60;34.50
18577;DHT22;9418;52.694;13.294;2023-11-22T08:46:22;2.00;46.50
18577;DHT22;9418;52.694;13.294;2023-11-22T08:48:49;1.90;41.80
18577;DHT22;9418;52.694;13.294;2023-11-22T08:51:16;1.50;27.70
18577;DHT22;9418;52.694;13.294;2023-11-22T08:53:43;1.30;76.80
18577;DHT22;9418;52.694;13.294;2023-11-22T08:56:10;1.10;99.90
18577;DHT22;9418;52.694;13.294;2023-11-22T08:58:38;0.60;99.90
18577;DHT22;9418;52.694;13.294;2023-11-22T09:01:04;0.60;99.90
18577;DHT22;9418;52.694;13.294;2023-11-22T09:03:32;0.50;99.90
18577;DHT22;9418;52.694;13.294;2023-11-22T09:05:59;0.60;99.90
18577;DHT22;9418;52.694;13.294;2023-11-22T09:08:25;0.80;99.90
18577;DHT22;9418;52.694;13.294;2023-11-22T09:10:52;0.50;99.90
18577;DHT22;9418;52.694;13.294;2023-11-22T09:13:19;0.40;99.90
18577;DHT22;9418;52.694;13.294;2023-11-22T09:15:49;0.70;24.40
18577;DHT22;9418;52.694;13.294;2023-11-22T09:18:16;0.70;24.30
18577;DHT22;9418;52.694;13.294;2023-11-22T09:20:42;0.80;21.10
18577;DHT22;9418;52.694;13.294;2023-11-22T09:23:10;0.80;20.50
18577;DHT22;9418;52.694;13.294;2023-11-22T09:25:38;0.90;32.00
18577;DHT22;9418;52.694;13.294;2023-11-22T09:28:04;0.90;30.30
18577;DHT22;9418;52.694;13.294;2023-11-22T09:30:33;1.00;35.10
18577;DHT22;9418;52.694;13.294;2023-11-22T09:33:02;1.00;32.80
18577;DHT22;9418;52.694;13.294;2023-11-22T09:35:30;1.70;37.80
18577;DHT22;9418;52.694;13.294;2023-11-22T09:37:57;2.00;68.90
18577;DHT22;9418;52.694;13.294;2023-11-22T09:40:24;3.00;99.90
18577;DHT22;9418;52.694;13.294;2023-11-22T09:42:52;2.70;99.90
18577;DHT22;9418;52.694;13.294;2023-11-22T09:45:21;3.10;99.90
18577;DHT22;9418;52.694;13.294;2023-11-22T09:47:48;3.40;99.90
18577;DHT22;9418;52.694;13.294;2023-11-22T09:50:19;3.90;99.90
18577;DHT22;9418;52.694;13.294;2023-11-22T09:52:50;4.90;99.90
18577;DHT22;9418;52.694;13.294;2023-11-22T09:55:19;5.40;99.90
18577;DHT22;9418;52.694;13.294;2023-11-22T09:57:47;4.90;99.90
18577;DHT22;9418;52.694;13.294;2023-11-22T10:00:16;4.60;99.90
18577;DHT22;9418;52.694;13.294;2023-11-22T10:02:44;4.60;99.90
18577;DHT22;9418;52.694;13.294;2023-11-22T10:05:11;4.00;99.90
18577;DHT22;9418;52.694;13.294;2023-11-22T10:07:39;4.10;99.90
18577;DHT22;9418;52.694;13.294;2023-11-22T10:10:06;3.60;99.90
18577;DHT22;9418;52.694;13.294;2023-11-22T10:12:36;3.60;99.90
18577;DHT22;9418;52.694;13.294;2023-11-22T10:15:13;3.10;99.90
18577;DHT22;9418;52.694;13.294;2023-11-22T10:17:41;2.80;99.90
18577;DHT22;9418;52.694;13.294;2023-11-22T10:20:13;3.20;99.90
18577;DHT22;9418;52.694;13.294;2023-11-22T10:22:47;3.00;99.90
18577;DHT22;9418;52.694;13.294;2023-11-22T10:25:14;2.90;99.90
18577;DHT22;9418;52.694;13.294;2023-11-22T10:27:44;2.70;99.90
18577;DHT22;9418;52.694;13.294;2023-11-22T10:30:12;3.10;99.90
18577;DHT22;9418;52.694;13.294;2023-11-22T10:32:40;2.90;99.90
18577;DHT22;9418;52.694;13.294;2023-11-22T10:35:07;2.90;99.90
18577;DHT22;9418;52.694;13.294;2023-11-22T10:37:35;2.90;99.90
18577;DHT22;9418;52.694;13.294;2023-11-22T10:40:05;2.80;99.90
18577;DHT22;9418;52.694;13.294;2023-11-22T10:42:33;2.80;99.90
18577;DHT22;9418;52.694;13.294;2023-11-22T10:45:01;2.80;99.90
18577;DHT22;9418;52.694;13.294;2023-11-22T10:47:29;3.00;99.90
18577;DHT22;9418;52.694;13.294;2023-11-22T10:49:56;2.60;99.90
18577;DHT22;9418;52.694;13.294;2023-11-22T10:52:27;2.60;99.90
18577;DHT22;9418;52.694;13.294;2023-11-22T10:54:59;2.90;99.90
18577;DHT22;9418;52.694;13.294;2023-11-22T10:57:31;3.00;99.90
18577;DHT22;9418;52.694;13.294;2023-11-22T11:00:03;3.20;99.90
18577;DHT22;9418;52.694;13.294;2023-11-22T11:02:37;2.90;99.90
18577;DHT22;9418;52.694;13.294;2023-11-22T11:05:14;3.10;99.90
18577;DHT22;9418;52.694;13.294;2023-11-22T11:07:47;3.00;99.90
18577;DHT22;9418;52.694;13.294;2023-11-22T11:10:15;3.40;99.90
18577;DHT22;9418;52.694;13.294;2023-11-22T11:12:44;3.50;99.90
18577;DHT22;9418;52.694;13.294;2023-11-22T11:15:11;3.30;99.90
18577;DHT22;9418;52.694;13.294;2023-11-22T11:17:38;3.00;99.90
18577;DHT22;9418;52.694;13.294;2023-11-22T11:20:06;3.00;99.90
18577;DHT22;9418;52.694;13.294;2023-11-22T11:22:32;2.90;99.90
18577;DHT22;9418;52.694;13.294;2023-11-22T11:25:01;3.00;99.90
18577;DHT22;9418;52.694;13.294;2023-11-22T11:27:33;3.10;99.90
18577;DHT22;9418;52.694;13.294;2023-11-22T11:30:02;3.10;99.90
18577;DHT22;9418;52.694;13.294;2023-11-22T11:32:50;2.90;99.90
18577;DHT22;9418;52.694;13.294;2023-11-22T11:35:17;2.50;99.90
18577;DHT22;9418;52.694;13.294;2023-11-22T11:37:46;2.60;99.90
18577;DHT22;9418;52.694;13.294;2023-11-22T11:40:25;2.80;99.90
18577;DHT22;9418;52.694;13.294;2023-11-22T11:42:54;2.80;99.90
18577;DHT22;9418;52.694;13.294;2023-11-22T11:45:22;2.90;99.90
18577;DHT22;9418;52.694;13.294;2023-11-22T11:47:49;2.90;99.90
18577;DHT22;9418;52.694;13.294;2023-11-22T11:50:16;2.90;99.90
18577;DHT22;9418;52.694;13.294;2023-11-22T11:52:43;2.90;99.90
18577;DHT22;9418;52.694;13.294;2023-11-22T11:55:09;3.00;99.90
18577;DHT22;9418;52.694;13.294;2023-11-22T11:57:36;3.70;99.90
18577;DHT22;9418;52.694;13.294;2023-11-22T12:00:03;4.20;99.90
18577;DHT22;9418;52.694;13.294;2023-11-22T12:02:32;4.50;99.90
18577;DHT22;9418;52.694;13.294;2023-11-22T12:04:59;4.60;99.90
18577;DHT22;9418;52.694;13.294;2023-11-22T12:07:26;4.30;99.90
18577;DHT22;9418;52.694;13.294;2023-11-22T12:09:53;5.50;99.90
18577;DHT22;9418;52.694;13.294;2023-11-22T12:12:22;5.80;99.90
18577;DHT22;9418;52.694;13.294;2023-11-22T12:14:49;5.80;99.90
18577;DHT22;9418;52.694;13.294;2023-11-22T12:17:16;5.30;99.90
18577;DHT22;9418;52.694;13.294;2023-11-22T12:19:44;4.60;99.90
18577;DHT22;9418;52.694;13.294;2023-11-22T12:22:11;4.90;99.90
18577;DHT22;9418;52.694;13.294;2023-11-22T12:24:38;4.30;99.90
18577;DHT22;9418;52.694;13.294;2023-11-22T12:27:05;4.10;99.90
18577;DHT22;9418;52.694;13.294;2023-11-22T12:29:36;3.70;99.90
18577;DHT22;9418;52.694;13.294;2023-11-22T12:32:03;3.40;99.90
18577;DHT22;9418;52.694;13.294;2023-11-22T12:34:30;3.50;99.90
18577;DHT22;9418;52.694;13.294;2023-11-22T12:37:00;3.00;99.90
18577;DHT22;9418;52.694;13.294;2023-11-22T12:39:28;2.80;99.90
18577;DHT22;9418;52.694;13.294;2023-11-22T12:41:55;2.70;99.90
18577;DHT22;9418;52.694;13.294;2023-11-22T12:44:23;2.90;99.90
18577;DHT22;9418;52.694;13.294;2023-11-22T12:46:50;2.80;99.90
18577;DHT22;9418;52.694;13.294;2023-11-22T12:49:22;3.00;99.90
18577;DHT22;9418;52.694;13.294;2023-11-22T12:51:49;3.00;99.90
18577;DHT22;9418;52.694;13.294;2023-11-22T12:54:18;2.90;99.90
18577;DHT22;9418;52.694;13.294;2023-11-22T12:56:47;3.10;99.90
18577;DHT22;9418;52.694;13.294;2023-11-22T12:59:15;3.00;99.90
18577;DHT22;9418;52.694;13.294;2023-11-22T13:01:44;2.90;99.90
18577;DHT22;9418;52.694;13.294;2023-11-22T13:04:10;2.90;99.90
18577;DHT22;9418;52.694;13.294;2023-11-22T13:06:41;2.80;99.90
18577;DHT22;9418;52.694;13.294;2023-11-22T13:09:08;2.70;99.90
18577;DHT22;9418;52.694;13.294;2023-11-22T13:11:41;2.70;99.90
18577;DHT22;9418;52.694;13.294;2023-11-22T13:14:08;2.70;99.90
18577;DHT22;9418;52.694;13.294;2023-11-22T13:16:35;2.60;99.90
18577;DHT22;9418;52.694;13.294;2023-11-22T13:19:04;2.50;99.90
18577;DHT22;9418;52.694;13.294;2023-11-22T13:21:31;2.60;99.90
18577;DHT22;9418;52.694;13.294;2023-11-22T13:23:57;2.50;99.90
18577;DHT22;9418;52.694;13.294;2023-11-22T13:26:25;2.50;99.90
18577;DHT22;9418;52.694;13.294;2023-11-22T13:28:53;2.50;99.90
18577;DHT22;9418;52.694;13.294;2023-11-22T13:31:21;2.50;99.90
18577;DHT22;9418;52.694;13.294;2023-11-22T13:33:47;2.40;99.90
18577;DHT22;9418;52.694;13.294;2023-11-22T13:36:15;2.40;99.90
18577;DHT22;9418;52.694;13.294;2023-11-22T13:38:42;2.40;99.90
18577;DHT22;9418;52.694;13.294;2023-11-22T13:41:09;2.30;99.90
18577;DHT22;9418;52.694;13.294;2023-11-22T13:43:36;2.40;99.90
18577;DHT22;9418;52.694;13.294;2023-11-22T13:46:05;2.40;99.90
18577;DHT22;9418;52.694;13.294;2023-11-22T13:48:31;2.40;99.90
18577;DHT22;9418;52.694;13.294;2023-11-22T13:50:58;2.30;99.90
18577;DHT22;9418;52.694;13.294;2023-11-22T13:53:25;2.30;99.90
18577;DHT22;9418;52.694;13.294;2023-11-22T13:55:56;2.20;99.90
18577;DHT22;9418;52.694;13.294;2023-11-22T13:58:23;2.20;99.90
18577;DHT22;9418;52.694;13.294;2023-11-22T14:00:50;2.10;99.90
18577;DHT22;9418;52.694;13.294;2023-11-22T14:03:21;2.10;99.90
18577;DHT22;9418;52.694;13.294;2023-11-22T14:05:47;2.00;99.90
18577;DHT22;9418;52.694;13.294;2023-11-22T14:08:14;2.00;99.90
18577;DHT22;9418;52.694;13.294;2023-11-22T14:10:41;2.00;99.90
18577;DHT22;9418;52.694;13.294;2023-11-22T14:13:07;2.00;99.90
18577;DHT22;9418;52.694;13.294;2023-11-22T14:15:34;1.90;99.90
18577;DHT22;9418;52.694;13.294;2023-11-22T14:18:01;1.80;99.90
18577;DHT22;9418;52.694;13.294;2023-11-22T14:20:29;1.80;99.90
18577;DHT22;9418;52.694;13.294;2023-11-22T14:22:58;1.80;99.90
18577;DHT22;9418;52.694;13.294;2023-11-22T14:25:24;1.70;99.90
18577;DHT22;9418;52.694;13.294;2023-11-22T14:27:52;1.70;99.90
18577;DHT22;9418;52.694;13.294;2023-11-22T14:30:21;1.60;99.90
18577;DHT22;9418;52.694;13.294;2023-11-22T14:32:48;1.60;99.90
18577;DHT22;9418;52.694;13.294;2023-11-22T14:35:16;1.50;79.60
18577;DHT22;9418;52.694;13.294;2023-11-22T14:37:44;1.40;74.10
18577;DHT22;9418;52.694;13.294;2023-11-22T14:40:11;1.40;59.60
18577;DHT22;9418;52.694;13.294;2023-11-22T14:42:40;1.30;60.20
18577;DHT22;9418;52.694;13.294;2023-11-22T14:45:07;1.20;63.20
18577;DHT22;9418;52.694;13.294;2023-11-22T14:47:34;1.20;65.40
18577;DHT22;9418;52.694;13.294;2023-11-22T14:50:02;1.20;52.50
18577;DHT22;9418;52.694;13.294;2023-11-22T14:52:30;1.10;63.20
18577;DHT22;9418;52.694;13.294;2023-11-22T14:54:57;1.10;52.30
18577;DHT22;9418;52.694;13.294;2023-11-22T14:57:25;1.10;62.30
18577;DHT22;9418;52.694;13.294;2023-11-22T14:59:52;1.00;63.90
18577;DHT22;9418;52.694;13.294;2023-11-22T15:02:19;1.00;59.40
18577;DHT22;9418;52.694;13.294;2023-11-22T15:04:46;0.90;53.90
18577;DHT22;9418;52.694;13.294;2023-11-22T15:07:13;0.90;44.70
18577;DHT22;9418;52.694;13.294;2023-11-22T15:09:40;0.90;42.10
18577;DHT22;9418;52.694;13.294;2023-11-22T15:12:10;0.80;42.00
18577;DHT22;9418;52.694;13.294;2023-11-22T15:14:36;0.70;42.70
18577;DHT22;9418;52.694;13.294;2023-11-22T15:17:03;0.70;37.20
18577;DHT22;9418;52.694;13.294;2023-11-22T15:19:30;0.70;21.20
18577;DHT22;9418;52.694;13.294;2023-11-22T15:21:57;0.70;84.20
18577;DHT22;9418;52.694;13.294;2023-11-22T15:24:24;0.70;87.90
18577;DHT22;9418;52.694;13.294;2023-11-22T15:26:51;0.70;95.60
18577;DHT22;9418;52.694;13.294;2023-11-22T15:29:19;0.70;99.90
18577;DHT22;9418;52.694;13.294;2023-11-22T15:31:46;0.70;99.90
18577;DHT22;9418;52.694;13.294;2023-11-22T15:34:13;0.80;99.90
18577;DHT22;9418;52.694;13.294;2023-11-22T15:36:39;0.70;99.90
18577;DHT22;9418;52.694;13.294;2023-11-22T15:39:06;0.70;99.90